Thursday, November 23, 2017, 7:27 AM GMT
Back to Local

CXMI, McNabs Island , N. S.

Location: , , Canada Lat: 44.6
Local Time: 7:27 AM GMT ( 7:27 GMT) Lon: -63.533
Time Zone: GMT Elev: 49 ft

Show me the last for .
Show Coded

Time T Td Feel RH Dir Speed Gust Alt SLP Vis Weather Sky Remarks
2017-11-23 07:00 56 55 - 94 220° 28 36 - - 0 Peak wind: 46 mph (40 kts) from 170° at 03 min
2017-11-23 06:00 56 55 - 94 150° 39 48 - - 0 Peak wind: 48 mph (42 kts) from 160° at 51 min
2017-11-23 05:00 55 53 - 95 100° 20 25 - - 0 Peak wind: 43 mph (38 kts) from 150° at 00 min
2017-11-23 04:00 55 53 - 92 150° 35 44 - - 0 Peak wind: 43 mph (38 kts) from 160° at 59 min
2017-11-23 03:00 54 52 - 92 140° 21 26 - - 0 Peak wind: 26 mph (23 kts) from 130° at 59 min
2017-11-23 02:00 54 52 - 93 150° 18 - - - 0 Peak wind: 33 mph (29 kts) from 170° at 16 min
2017-11-23 01:00 54 52 - 91 160° 21 - - - 0 Peak wind: 32 mph (28 kts) from 150° at 37 min
2017-11-23 00:00 54 52 - 92 150° 24 - - - 0 Peak wind: 29 mph (26 kts) from 160° at 43 min
2017-11-22 23:00 54 51 - 91 150° 15 - - - 0 None
2017-11-22 22:00 53 51 - 93 150° 12 - - - 0 None
2017-11-22 21:00 51 49 - 93 140° 9 - - - 0 None
2017-11-22 20:00 52 50 - 93 160° 6 - - - 0 None
2017-11-22 19:00 53 49 - 85 160° 9 - - - 0 None
2017-11-22 18:00 54 49 - 84 150° 8 - - - 0 None
2017-11-22 17:00 58 50 - 75 180° 12 - - - 0 Peak wind: 19 mph (17 kts) from 200° at 32 min
2017-11-22 16:00 59 50 - 73 230° 14 - - - 0 None
2017-11-22 15:00 57 50 - 78 240° 12 - - - 0 Peak wind: 20 mph (18 kts) from 240° at 08 min
2017-11-22 14:00 56 49 - 79 240° 14 - - - 0 Peak wind: 19 mph (17 kts) from 240° at 41 min
2017-11-22 13:00 54 49 - 83 220° 8 - - - 0 None
2017-11-22 12:00 52 49 - 89 200° 7 - - - 0 None
2017-11-22 11:00 51 49 - 89 210° 7 - - - 0 None
2017-11-22 10:00 52 49 - 89 200° 9 - - - 0 None
2017-11-22 09:00 52 49 - 89 210° 9 - - - 0 None
2017-11-22 08:00 52 49 - 88 220° 8 - - - 0 None

Support USWX by starting your Amazon purchase here.